Time;durP1;ratioP1;P1;durP2;ratioP2;P2;SDS_P1;SDS_P2;PMS_P1;PMS_P2;Temp;Humidity;BMP_temperature;BMP_pressure;BME280_temperature;BME280_humidity;BME280_pressure;Samples;Min_cycle;Max_cycle;Signal;HPM_P1;HPM_P2
2023/12/10 00:01:15;;;;;;;37.40;19.67;;;;;;;-143.21;77.11;73498.25;5012537;28;20648;-80
2023/12/10 00:03:42;;;;;;;33.73;18.63;;;;;;;-143.21;76.93;73502.22;5012121;28;20651;-80
2023/12/10 00:06:10;;;;;;;31.90;19.07;;;;;;;-143.21;77.50;73518.09;5012502;28;20195;-80
2023/12/10 00:08:37;;;;;;;35.30;19.67;;;;;;;-143.21;77.17;73520.09;5012665;28;20203;-80
2023/12/10 00:11:04;;;;;;;35.80;19.50;;;;;;;-143.21;77.48;73524.06;5012300;28;20303;-80
2023/12/10 00:13:31;;;;;;;31.13;18.30;;;;;;;-143.21;77.43;73514.13;5011699;28;20238;-80
2023/12/10 00:15:58;;;;;;;34.77;19.87;;;;;;;-143.21;77.38;73516.13;5024658;28;20203;-80
2023/12/10 00:18:25;;;;;;;34.70;19.90;;;;;;;-143.21;77.86;73524.06;5031671;28;20314;-80
2023/12/10 00:20:52;;;;;;;35.03;20.77;;;;;;;-143.21;78.00;73520.09;5031311;28;20662;-79
2023/12/10 00:23:20;;;;;;;38.83;20.80;;;;;;;-143.21;77.58;73516.13;5031417;28;20203;-80
2023/12/10 00:25:47;;;;;;;37.37;21.07;;;;;;;-143.21;77.74;73512.16;5031103;28;20680;-80
2023/12/10 00:28:14;;;;;;;38.10;20.73;;;;;;;-143.21;77.53;73506.19;5031584;28;20226;-80
2023/12/10 00:30:42;;;;;;;38.03;21.30;;;;;;;-143.21;77.65;73514.13;5031470;28;20206;-80
2023/12/10 00:33:08;;;;;;;34.07;19.57;;;;;;;-143.21;77.80;73510.16;5031362;28;20198;-80
2023/12/10 00:35:35;;;;;;;32.43;19.80;;;;;;;-143.21;77.55;73504.22;5031310;28;20190;-81
2023/12/10 00:38:02;;;;;;;33.13;20.40;;;;;;;-143.21;77.93;73502.22;5031026;28;20230;-81
2023/12/10 00:40:31;;;;;;;33.43;19.17;;;;;;;-143.21;77.94;73498.25;5031253;28;20191;-81
2023/12/10 00:42:58;;;;;;;35.77;20.03;;;;;;;-143.21;77.77;73484.38;5031512;28;20253;-80
2023/12/10 00:45:25;;;;;;;34.93;20.03;;;;;;;-143.21;77.34;73478.41;5031233;28;20249;-81
2023/12/10 00:47:52;;;;;;;37.37;20.07;;;;;;;-143.21;77.49;73492.31;5030819;28;20727;-80
2023/12/10 00:50:19;;;;;;;34.83;20.40;;;;;;;-143.21;77.40;73486.34;5031291;28;20657;-80
2023/12/10 00:52:46;;;;;;;36.43;19.60;;;;;;;-143.21;77.15;73486.34;5031254;28;20198;-80
2023/12/10 00:55:13;;;;;;;33.27;19.53;;;;;;;-143.21;77.74;73494.28;5031362;28;20289;-80
2023/12/10 00:57:42;;;;;;;32.83;19.20;;;;;;;-143.21;77.65;73488.34;5030055;28;20223;-80
2023/12/10 01:00:10;;;;;;;37.03;20.43;;;;;;;-143.21;77.87;73484.38;5030997;28;20201;-79
2023/12/10 01:02:36;;;;;;;31.37;18.87;;;;;;;-143.21;77.66;73490.31;5031039;28;20201;-80
2023/12/10 01:05:04;;;;;;;33.23;19.40;;;;;;;-143.21;78.11;73486.34;5030620;28;20190;-80
2023/12/10 01:07:29;;;;;;;32.90;19.10;;;;;;;-143.21;77.94;73486.34;5030309;28;20246;-80
2023/12/10 01:09:56;;;;;;;38.60;20.47;;;;;;;-143.21;77.51;73472.47;5030634;28;20207;-79
2023/12/10 01:12:23;;;;;;;38.50;21.03;;;;;;;-143.21;77.47;73474.47;5030586;28;20226;-80
2023/12/10 01:14:51;;;;;;;40.20;21.30;;;;;;;-143.21;77.08;73480.41;5031347;28;20214;-80
2023/12/10 01:17:18;;;;;;;37.07;21.50;;;;;;;-143.21;77.11;73468.50;5030827;28;20227;-80
2023/12/10 01:19:45;;;;;;;39.67;22.10;;;;;;;-143.21;77.02;73452.63;5030520;28;20194;-80
2023/12/10 01:22:12;;;;;;;37.17;20.97;;;;;;;-143.21;77.14;73468.50;5030944;28;20190;-80
2023/12/10 01:24:39;;;;;;;43.57;22.03;;;;;;;-143.21;77.49;73472.47;5030893;28;20213;-80
2023/12/10 01:27:06;;;;;;;39.47;21.40;;;;;;;-143.21;77.64;73474.47;5030951;28;20211;-80
2023/12/10 01:29:33;;;;;;;41.17;22.17;;;;;;;-143.21;77.15;73460.56;5030613;28;20198;-80
2023/12/10 01:32:01;;;;;;;38.77;22.70;;;;;;;-143.21;77.46;73456.59;5032569;28;20232;-80
2023/12/10 01:34:28;;;;;;;42.73;22.87;;;;;;;-143.21;77.64;73456.59;5035166;28;20577;-80
2023/12/10 01:36:55;;;;;;;41.17;22.40;;;;;;;-143.21;77.49;73458.59;5034480;28;20709;-80
2023/12/10 01:39:22;;;;;;;40.70;22.30;;;;;;;-143.21;77.61;73450.66;5034630;28;20199;-79
2023/12/10 01:41:49;;;;;;;42.03;22.83;;;;;;;-143.21;77.26;73456.59;5034484;28;20191;-79
2023/12/10 01:44:15;;;;;;;45.07;21.63;;;;;;;-143.21;77.38;73456.59;5035129;28;20191;-79
2023/12/10 01:46:45;;;;;;;43.00;23.10;;;;;;;-143.21;77.63;73458.59;5035027;28;20209;-80
2023/12/10 01:49:15;;;;;;;47.07;23.90;;;;;;;-143.21;77.29;73466.53;5034488;28;20195;-79
2023/12/10 01:51:43;;;;;;;41.20;22.17;;;;;;;-143.21;77.07;73454.63;5034597;28;20193;-79
2023/12/10 01:54:18;;;;;;;39.50;21.90;;;;;;;-143.21;77.17;73466.53;5035325;28;20191;-79
2023/12/10 01:56:45;;;;;;;42.77;22.60;;;;;;;-143.21;77.53;73478.41;5034550;28;20650;-79
2023/12/10 01:59:12;;;;;;;41.53;22.43;;;;;;;-143.21;77.50;73480.41;5034949;28;20209;-79
2023/12/10 02:01:39;;;;;;;40.07;21.00;;;;;;;-143.21;77.20;73470.50;5034157;28;20197;-80
2023/12/10 02:04:07;;;;;;;41.43;21.77;;;;;;;-143.21;76.93;73460.56;5034376;28;20202;-79
2023/12/10 02:06:35;;;;;;;35.50;21.37;;;;;;;-143.21;76.85;73462.56;5034519;28;20201;-80
2023/12/10 02:09:09;;;;;;;42.30;22.40;;;;;;;-143.21;77.12;73464.53;5034170;28;20234;-80
2023/12/10 02:11:36;;;;;;;40.63;21.30;;;;;;;-143.21;77.19;73476.44;5033666;28;20289;-79
2023/12/10 02:14:04;;;;;;;43.43;22.40;;;;;;;-143.21;77.52;73464.53;5034338;28;20191;-79
2023/12/10 02:16:31;;;;;;;38.03;21.20;;;;;;;-143.21;77.76;73470.50;5034255;28;20199;-79
2023/12/10 02:18:58;;;;;;;36.00;20.77;;;;;;;-143.21;77.85;73462.56;5033801;28;20221;-80
2023/12/10 02:21:25;;;;;;;39.57;21.43;;;;;;;-143.21;77.85;73470.50;5034388;28;20197;-80
2023/12/10 02:24:02;;;;;;;39.47;21.13;;;;;;;-143.21;77.74;73474.47;5034243;28;20226;-80
2023/12/10 02:26:31;;;;;;;40.00;21.90;;;;;;;-143.21;77.71;73466.53;5034174;28;20191;-79
2023/12/10 02:28:58;;;;;;;37.03;21.07;;;;;;;-143.21;78.21;73472.47;5033524;28;20661;-79
2023/12/10 02:31:25;;;;;;;35.60;20.47;;;;;;;-143.21;77.87;73460.56;5033805;28;20195;-79
2023/12/10 02:33:52;;;;;;;38.00;21.07;;;;;;;-143.21;77.71;73454.63;5033416;28;20248;-79
2023/12/10 02:36:19;;;;;;;39.57;21.57;;;;;;;-143.21;77.79;73446.69;5033629;28;20672;-80
2023/12/10 02:38:47;;;;;;;38.53;21.77;;;;;;;-143.21;77.71;73436.75;5033662;28;20222;-79
2023/12/10 02:41:15;;;;;;;37.33;21.00;;;;;;;-143.21;77.58;73450.66;5033446;28;20195;-79
2023/12/10 02:43:43;;;;;;;43.50;22.30;;;;;;;-143.21;77.96;73446.69;5031839;28;20187;-80
2023/12/10 02:46:10;;;;;;;37.47;21.43;;;;;;;-143.21;77.92;73444.69;5033688;28;20210;-79
2023/12/10 02:48:37;;;;;;;38.23;20.53;;;;;;;-143.21;77.90;73446.69;5033644;28;20187;-79
2023/12/10 02:51:04;;;;;;;36.80;21.57;;;;;;;-143.21;78.01;73442.72;5033659;28;20195;-78
2023/12/10 02:53:30;;;;;;;38.43;21.57;;;;;;;-143.21;78.03;73450.66;5033447;28;20201;-79
2023/12/10 02:55:58;;;;;;;38.40;21.40;;;;;;;-143.21;77.73;73436.75;5032991;28;20202;-79
2023/12/10 02:58:25;;;;;;;42.70;21.80;;;;;;;-143.21;77.62;73438.75;5033564;28;20590;-79
2023/12/10 03:00:55;;;;;;;37.57;21.30;;;;;;;-143.21;77.53;73444.69;5033681;28;20190;-79
2023/12/10 03:03:22;;;;;;;39.07;21.30;;;;;;;-143.21;78.05;73440.72;5033335;28;20200;-79
2023/12/10 03:05:49;;;;;;;41.57;21.47;;;;;;;-143.21;77.93;73432.78;5032614;28;20194;-79
2023/12/10 03:08:15;;;;;;;36.97;20.40;;;;;;;-143.21;77.97;73432.78;5033015;28;20213;-79
2023/12/10 03:10:42;;;;;;;38.13;20.80;;;;;;;-143.21;77.50;73418.91;5033018;28;20198;-79
2023/12/10 03:13:09;;;;;;;39.93;20.43;;;;;;;-143.21;77.17;73440.72;5032956;28;20227;-79
2023/12/10 03:15:36;;;;;;;36.87;20.97;;;;;;;-143.21;77.64;73438.75;5032976;28;20221;-79
2023/12/10 03:18:05;;;;;;;38.13;21.17;;;;;;;-143.21;77.34;73434.78;5032966;28;20218;-79
2023/12/10 03:20:32;;;;;;;39.73;21.23;;;;;;;-143.21;77.32;73432.78;5032904;28;20190;-79
2023/12/10 03:22:59;;;;;;;37.73;21.00;;;;;;;-143.21;76.56;73430.81;5032814;28;20202;-79
2023/12/10 03:25:26;;;;;;;38.90;21.07;;;;;;;-143.21;77.58;73450.66;5032801;28;20197;-81
2023/12/10 03:27:52;;;;;;;41.53;21.40;;;;;;;-143.21;77.67;73454.63;5032485;28;20195;-79
2023/12/10 03:30:19;;;;;;;41.00;20.97;;;;;;;-143.21;77.58;73448.66;5032790;28;20194;-78
2023/12/10 03:32:46;;;;;;;41.07;21.77;;;;;;;-143.21;77.50;73450.66;5032701;28;20199;-78
2023/12/10 03:35:15;;;;;;;37.63;21.47;;;;;;;-143.21;77.74;73460.56;5033256;28;20228;-78
2023/12/10 03:37:42;;;;;;;40.13;20.00;;;;;;;-143.21;77.56;73462.56;5032203;28;20226;-78
2023/12/10 03:40:10;;;;;;;40.07;20.90;;;;;;;-143.21;77.71;73456.59;5031600;28;20213;-78
2023/12/10 03:42:36;;;;;;;39.73;20.37;;;;;;;-143.21;77.71;73452.63;5032050;28;20202;-79
2023/12/10 03:45:04;;;;;;;36.00;20.77;;;;;;;-143.21;77.95;73460.56;5032525;28;20202;-79
2023/12/10 03:47:31;;;;;;;41.20;21.70;;;;;;;-143.21;78.11;73458.59;5032784;28;20550;-78
2023/12/10 03:49:58;;;;;;;40.50;21.90;;;;;;;-143.21;77.74;73456.59;5031991;28;20194;-79
2023/12/10 03:52:26;;;;;;;43.93;22.70;;;;;;;-143.21;77.61;73460.56;5032296;28;20202;-79
2023/12/10 03:54:53;;;;;;;38.23;21.10;;;;;;;-143.21;77.82;73454.63;5032215;28;20206;-80
2023/12/10 03:57:21;;;;;;;40.90;21.17;;;;;;;-143.21;77.94;73450.66;5032526;28;20210;-79
2023/12/10 03:59:48;;;;;;;46.40;22.07;;;;;;;-143.21;77.69;73450.66;5032143;28;20195;-79
2023/12/10 04:02:15;;;;;;;39.23;20.67;;;;;;;-143.21;77.43;73454.63;5032630;28;20199;-79
2023/12/10 04:04:42;;;;;;;44.17;22.40;;;;;;;-143.21;77.85;73456.59;5032518;28;20252;-79
2023/12/10 04:07:09;;;;;;;40.97;21.83;;;;;;;-143.21;77.90;73464.53;5032518;28;20222;-80
2023/12/10 04:09:37;;;;;;;46.20;21.10;;;;;;;-143.21;78.16;73458.59;5032029;28;20195;-80
2023/12/10 04:12:05;;;;;;;40.43;20.73;;;;;;;-143.21;78.02;73450.66;5031715;28;20767;-79
2023/12/10 04:14:32;;;;;;;41.83;21.43;;;;;;;-143.21;78.02;73460.56;5032273;28;20217;-79
2023/12/10 04:16:59;;;;;;;43.60;21.10;;;;;;;-143.21;78.40;73458.59;5032097;28;20191;-80
2023/12/10 04:19:26;;;;;;;41.60;22.33;;;;;;;-143.21;78.16;73460.56;5031889;28;20708;-79
2023/12/10 04:21:53;;;;;;;40.20;22.00;;;;;;;-143.21;78.27;73470.50;5031912;28;20194;-79
2023/12/10 04:24:20;;;;;;;40.80;22.00;;;;;;;-143.21;78.56;73474.47;5031811;28;20206;-79
2023/12/10 04:26:48;;;;;;;38.93;20.83;;;;;;;-143.21;78.30;73460.56;5031588;28;20210;-79
2023/12/10 04:29:15;;;;;;;41.57;21.47;;;;;;;-143.21;78.47;73454.63;5031933;28;20194;-79
2023/12/10 04:31:42;;;;;;;39.70;21.00;;;;;;;-143.21;77.27;73446.69;5031541;28;20195;-79
2023/12/10 04:34:09;;;;;;;40.17;21.20;;;;;;;-143.21;77.49;73450.66;5031471;28;20194;-79
2023/12/10 04:36:36;;;;;;;40.13;22.00;;;;;;;-143.21;77.54;73446.69;5031682;28;20191;-79
2023/12/10 04:39:02;;;;;;;41.17;21.03;;;;;;;-143.21;77.03;73450.66;5032003;28;20221;-79
2023/12/10 04:41:29;;;;;;;40.37;21.60;;;;;;;-143.21;77.69;73454.63;5031724;28;20197;-79
2023/12/10 04:43:57;;;;;;;45.07;23.00;;;;;;;-143.21;77.86;73460.56;5031344;28;20195;-79
2023/12/10 04:46:24;;;;;;;40.00;22.10;;;;;;;-143.21;77.70;73446.69;5031766;28;20203;-79
2023/12/10 04:48:52;;;;;;;40.63;22.27;;;;;;;-143.21;77.57;73450.66;5032200;28;20274;-79
2023/12/10 04:51:19;;;;;;;37.87;21.33;;;;;;;-143.21;77.60;73452.63;5031678;28;20574;-79
2023/12/10 04:53:46;;;;;;;40.97;21.80;;;;;;;-143.21;77.65;73462.56;5031239;28;20194;-78
2023/12/10 04:56:12;;;;;;;35.43;20.53;;;;;;;-143.21;77.74;73456.59;5031302;28;20188;-77
2023/12/10 04:58:39;;;;;;;47.20;21.70;;;;;;;-143.21;78.01;73450.66;5031250;28;20682;-78
2023/12/10 05:01:08;;;;;;;41.83;22.03;;;;;;;-143.21;77.98;73454.63;5030870;28;20204;-78
2023/12/10 05:03:34;;;;;;;36.83;20.67;;;;;;;-143.21;78.08;73450.66;5031172;28;20195;-78
2023/12/10 05:06:02;;;;;;;40.50;22.33;;;;;;;-143.21;78.00;73448.66;5031583;28;20191;-80
2023/12/10 05:08:29;;;;;;;37.07;20.20;;;;;;;-143.21;77.84;73456.59;5035299;28;20665;-80
2023/12/10 05:10:56;;;;;;;36.03;20.67;;;;;;;-143.21;78.11;73458.59;5035507;28;20281;-80
2023/12/10 05:13:22;;;;;;;40.00;22.40;;;;;;;-143.21;78.40;73468.50;5034916;28;20236;-79
2023/12/10 05:15:49;;;;;;;50.50;21.73;;;;;;;-143.21;78.74;73468.50;5034384;28;20214;-79
2023/12/10 05:18:18;;;;;;;40.67;22.07;;;;;;;-143.21;78.55;73464.53;5035166;28;20222;-79
2023/12/10 05:20:45;;;;;;;41.00;20.87;;;;;;;-143.21;78.55;73464.53;5023192;28;20211;-80
2023/12/10 05:23:12;;;;;;;38.63;20.80;;;;;;;-143.21;78.97;73470.50;5015325;28;20227;-84
2023/12/10 05:25:38;;;;;;;39.30;21.10;;;;;;;-143.21;78.68;73474.47;5032916;28;20291;-77
2023/12/10 05:28:05;;;;;;;39.63;21.07;;;;;;;-143.21;78.88;73476.44;5035051;28;20195;-76
2023/12/10 05:30:32;;;;;;;41.33;20.83;;;;;;;-143.21;79.00;73476.44;5025951;28;20211;-76
2023/12/10 05:32:59;;;;;;;37.07;20.37;;;;;;;-143.21;78.97;73492.31;5014978;28;20201;-77
2023/12/10 05:35:28;;;;;;;40.90;21.33;;;;;;;-143.21;79.20;73492.31;5015342;28;20214;-83
2023/12/10 05:37:55;;;;;;;36.80;20.33;;;;;;;-143.21;79.35;73490.31;5015837;28;20238;-83
2023/12/10 05:40:25;;;;;;;39.60;21.43;;;;;;;-143.21;79.00;73486.34;5019131;28;20206;-90
2023/12/10 05:42:52;;;;;;;43.07;21.67;;;;;;;-143.21;79.00;73492.31;5016387;28;20207;-79
2023/12/10 05:45:19;;;;;;;41.97;22.13;;;;;;;-143.21;79.34;73494.28;5015961;28;20202;-83
2023/12/10 05:47:46;;;;;;;39.83;20.50;;;;;;;-143.21;79.61;73494.28;5019739;28;20190;-85
2023/12/10 05:50:13;;;;;;;36.57;19.63;;;;;;;-143.21;78.69;73482.38;5017089;28;20192;-88
2023/12/10 05:52:41;;;;;;;57.43;20.83;;;;;;;-143.21;79.19;73490.31;5019978;28;20572;-85
2023/12/10 05:55:09;;;;;;;34.47;18.23;;;;;;;-143.21;79.55;73502.22;5032698;28;20573;-83
2023/12/10 05:57:36;;;;;;;36.53;19.63;;;;;;;-143.21;79.87;73506.19;5035037;28;20202;-82
2023/12/10 06:00:05;;;;;;;36.93;18.67;;;;;;;-143.21;79.99;73496.28;5035099;28;20309;-85
2023/12/10 06:02:35;;;;;;;36.70;19.23;;;;;;;-143.21;80.09;73508.19;5036108;28;20294;-84
2023/12/10 06:05:02;;;;;;;32.87;18.60;;;;;;;-143.21;79.84;73500.25;5035219;28;20183;-85
2023/12/10 06:07:28;;;;;;;34.43;19.20;;;;;;;-143.21;79.84;73510.16;5036191;28;20239;-84
2023/12/10 06:09:57;;;;;;;37.43;18.93;;;;;;;-143.21;79.72;73502.22;5034941;28;20195;-84
2023/12/10 06:12:24;;;;;;;37.57;19.50;;;;;;;-143.21;80.42;73510.16;5035158;28;20226;-80
2023/12/10 06:14:54;;;;;;;34.50;18.70;;;;;;;-143.21;80.51;73508.19;5033930;28;20190;-81
2023/12/10 06:17:24;;;;;;;35.00;19.07;;;;;;;-143.21;80.36;73514.13;5034761;28;20186;-89
2023/12/10 06:19:51;;;;;;;36.77;19.10;;;;;;;-143.21;80.42;73520.09;5034267;28;20210;-88
2023/12/10 06:22:18;;;;;;;34.87;18.00;;;;;;;-143.21;80.51;73524.06;5034795;28;20223;-83
2023/12/10 06:24:45;;;;;;;35.30;18.67;;;;;;;-143.21;80.44;73526.03;5034462;28;20197;-83
2023/12/10 06:27:13;;;;;;;37.73;19.17;;;;;;;-143.21;80.35;73530.00;5034383;28;20190;-82
2023/12/10 06:29:41;;;;;;;33.53;18.53;;;;;;;-143.21;80.79;73543.88;5034223;28;20231;-84
2023/12/10 06:32:10;;;;;;;35.63;17.67;;;;;;;-143.21;80.98;73535.94;5034711;28;20199;-87
2023/12/10 06:34:37;;;;;;;34.70;18.30;;;;;;;-143.21;80.97;73530.00;5033829;28;20249;-85
2023/12/10 06:37:05;;;;;;;30.43;18.10;;;;;;;-143.21;81.10;73535.94;5034152;28;20198;-82
2023/12/10 06:39:31;;;;;;;31.10;17.70;;;;;;;-143.21;81.00;73541.91;5033767;28;20219;-86
2023/12/10 06:41:58;;;;;;;32.47;18.07;;;;;;;-143.21;80.49;73526.03;5032637;28;20194;-88
2023/12/10 06:44:27;;;;;;;31.67;17.20;;;;;;;-143.21;80.19;73522.06;5014596;28;20196;-90
2023/12/10 06:46:54;;;;;;;30.23;17.07;;;;;;;-143.21;80.16;73526.03;5034140;28;20205;-78
2023/12/10 06:49:21;;;;;;;34.97;18.33;;;;;;;-143.21;80.39;73532.00;5033900;28;20198;-87
2023/12/10 06:51:47;;;;;;;31.47;17.80;;;;;;;-143.21;80.71;73547.84;5034199;28;20638;-86
2023/12/10 06:54:14;;;;;;;41.67;22.67;;;;;;;-143.21;81.11;73563.72;5034194;28;20218;-86
2023/12/10 06:56:41;;;;;;;66.33;36.77;;;;;;;-143.21;81.20;73557.78;5033747;28;20290;-85
2023/12/10 06:59:08;;;;;;;63.60;36.77;;;;;;;-143.21;81.14;73547.84;5033635;28;20215;-86
2023/12/10 07:01:38;;;;;;;58.90;29.23;;;;;;;-143.21;81.23;73549.84;5034043;28;20195;-86
2023/12/10 07:04:05;;;;;;;49.10;26.33;;;;;;;-143.21;81.47;73547.84;5034213;28;20294;-86
2023/12/10 07:06:32;;;;;;;49.90;24.97;;;;;;;-143.21;81.39;73543.88;5033423;28;20577;-86
2023/12/10 07:08:59;;;;;;;49.40;25.33;;;;;;;-143.21;81.14;73533.97;5034146;28;20191;-86
2023/12/10 07:11:26;;;;;;;46.77;25.03;;;;;;;-143.21;81.70;73528.03;5034218;28;20199;-86
2023/12/10 07:13:53;;;;;;;56.60;26.60;;;;;;;-143.21;81.82;73528.03;5033429;28;20726;-86
2023/12/10 07:16:20;;;;;;;59.77;28.00;;;;;;;-143.21;82.33;73532.00;5033445;28;20559;-86
2023/12/10 07:18:49;;;;;;;57.50;26.47;;;;;;;-143.21;82.95;73516.13;5033530;28;20301;-86
2023/12/10 07:21:15;;;;;;;46.87;23.13;;;;;;;-143.21;83.12;73504.22;5034050;28;20197;-86
2023/12/10 07:23:42;;;;;;;40.57;22.53;;;;;;;-143.21;82.12;73488.34;5033708;28;20660;-86
2023/12/10 07:26:09;;;;;;;37.90;20.97;;;;;;;-143.21;81.26;73490.31;5034003;28;20198;-86
2023/12/10 07:28:36;;;;;;;39.13;19.03;;;;;;;-143.21;81.02;73484.38;5032560;28;20191;-86
2023/12/10 07:31:03;;;;;;;35.43;19.07;;;;;;;-143.21;80.86;73478.41;5033395;28;20198;-86
2023/12/10 07:33:30;;;;;;;36.63;19.23;;;;;;;-143.21;80.42;73464.53;5033504;28;20658;-86
2023/12/10 07:35:59;;;;;;;38.13;19.97;;;;;;;-143.21;80.39;73456.59;5033166;28;20201;-86
2023/12/10 07:38:25;;;;;;;40.20;19.30;;;;;;;-143.21;80.24;73458.59;5032871;28;20711;-86
2023/12/10 07:40:52;;;;;;;35.13;20.00;;;;;;;-143.21;80.17;73458.59;5032738;28;20206;-87
2023/12/10 07:43:19;;;;;;;35.20;20.33;;;;;;;-143.21;79.94;73456.59;5032823;28;20699;-86
2023/12/10 07:45:46;;;;;;;40.00;22.03;;;;;;;-143.21;79.39;73434.78;5022073;28;20204;-86
2023/12/10 07:48:13;;;;;;;38.00;20.77;;;;;;;-143.21;78.98;73432.78;5013092;28;20227;-86
2023/12/10 07:50:40;;;;;;;37.13;19.63;;;;;;;-143.21;78.63;73430.81;5013941;28;20210;-86
2023/12/10 07:53:08;;;;;;;38.93;20.80;;;;;;;-143.21;78.18;73432.78;5015247;28;20586;-87
2023/12/10 07:55:35;;;;;;;42.40;21.17;;;;;;;-143.21;77.22;73420.91;5013020;28;20196;-87
2023/12/10 07:58:02;;;;;;;40.37;20.90;;;;;;;-143.21;77.27;73420.91;5013105;28;20583;-87
2023/12/10 08:00:29;;;;;;;38.60;21.10;;;;;;;-143.21;76.64;73436.75;5012756;28;20289;-86
2023/12/10 08:02:56;;;;;;;37.83;21.70;;;;;;;-143.21;77.24;73432.78;5013342;28;20611;-86
2023/12/10 08:05:23;;;;;;;37.50;20.10;;;;;;;-143.21;76.88;73428.81;5013271;28;20195;-86
2023/12/10 08:07:50;;;;;;;38.03;21.40;;;;;;;-143.21;77.12;73430.81;5012912;28;20208;-86
2023/12/10 08:10:19;;;;;;;38.83;21.70;;;;;;;-143.21;77.17;73430.81;5012607;28;20198;-86
2023/12/10 08:12:46;;;;;;;35.77;20.87;;;;;;;-143.21;77.38;73426.84;5012478;28;20223;-86
2023/12/10 08:15:12;;;;;;;36.87;20.17;;;;;;;-143.21;77.07;73414.94;5014186;28;20195;-86
2023/12/10 08:17:39;;;;;;;35.37;20.77;;;;;;;-143.21;76.74;73407.00;5015715;28;20551;-86
2023/12/10 08:20:08;;;;;;;36.13;19.83;;;;;;;-143.21;76.65;73403.03;5015051;28;20219;-87
2023/12/10 08:22:35;;;;;;;34.83;19.80;;;;;;;-143.21;76.39;73399.06;5013471;28;20274;-86
2023/12/10 08:25:02;;;;;;;36.73;20.07;;;;;;;-143.21;76.37;73405.03;5013351;28;20218;-87
2023/12/10 08:27:30;;;;;;;36.00;19.30;;;;;;;-143.21;76.01;73403.03;5012682;28;20197;-85
2023/12/10 08:29:57;;;;;;;33.63;19.33;;;;;;;-143.21;76.20;73403.03;5012455;28;20192;-87
2023/12/10 08:32:24;;;;;;;39.50;20.43;;;;;;;-143.21;75.63;73401.06;5012876;28;20200;-87
2023/12/10 08:34:51;;;;;;;46.30;21.17;;;;;;;-143.21;75.94;73395.09;5012821;28;20212;-87
2023/12/10 08:37:17;;;;;;;38.97;21.97;;;;;;;-143.21;75.43;73381.22;5011983;28;20381;-86
2023/12/10 08:39:44;;;;;;;43.60;21.20;;;;;;;-143.21;75.82;73381.22;5012132;28;20231;-87
2023/12/10 08:42:11;;;;;;;37.90;20.67;;;;;;;-143.21;75.63;73385.19;5012122;28;20202;-86
2023/12/10 08:44:40;;;;;;;40.37;20.53;;;;;;;-143.21;76.37;73395.09;5014276;28;20192;-87
2023/12/10 08:47:07;;;;;;;35.80;20.70;;;;;;;-143.21;76.66;73397.09;5031737;28;20211;-87
2023/12/10 08:49:34;;;;;;;36.43;19.80;;;;;;;-143.21;76.24;73391.13;5031728;28;20683;-87
2023/12/10 08:52:01;;;;;;;30.50;18.70;;;;;;;-143.21;76.56;73383.19;5032340;28;20203;-88
2023/12/10 08:54:28;;;;;;;33.63;19.23;;;;;;;-143.21;76.48;73387.16;5031622;28;20686;-86
2023/12/10 08:56:55;;;;;;;34.10;19.93;;;;;;;-143.21;76.71;73381.22;5031650;28;20191;-86
2023/12/10 08:59:22;;;;;;;35.73;18.83;;;;;;;-143.21;76.69;73379.22;5031024;28;20222;-86
2023/12/10 09:01:50;;;;;;;39.43;20.20;;;;;;;-143.21;76.43;73379.22;5031431;28;20658;-87
2023/12/10 09:04:17;;;;;;;31.67;18.73;;;;;;;-143.21;76.69;73377.25;5032039;28;20213;-86
2023/12/10 09:06:44;;;;;;;39.17;19.70;;;;;;;-143.21;76.86;73367.34;5031918;28;20218;-86
2023/12/10 09:09:11;;;;;;;32.77;18.70;;;;;;;-143.21;76.61;73359.41;5031525;28;20569;-87
2023/12/10 09:11:38;;;;;;;35.73;18.07;;;;;;;-143.21;74.78;73355.44;5031480;28;20286;-85
2023/12/10 09:14:07;;;;;;;38.87;20.37;;;;;;;-143.21;75.57;73357.41;5032241;28;20199;-86
2023/12/10 09:16:34;;;;;;;33.53;19.07;;;;;;;-143.21;75.72;73361.38;5031797;28;20206;-87
2023/12/10 09:19:02;;;;;;;32.30;18.67;;;;;;;-143.21;76.49;73353.44;5031997;28;20229;-86
2023/12/10 09:21:29;;;;;;;37.20;19.60;;;;;;;-143.21;75.83;73339.56;5032013;28;20570;-86
2023/12/10 09:23:57;;;;;;;34.73;19.20;;;;;;;-143.21;75.80;73339.56;5031541;28;20204;-86
2023/12/10 09:26:25;;;;;;;34.87;18.77;;;;;;;-143.21;76.61;73319.72;5031629;28;20238;-86
2023/12/10 09:28:52;;;;;;;32.20;18.77;;;;;;;-143.21;75.48;73319.72;5031603;28;20294;-87
2023/12/10 09:31:19;;;;;;;35.23;18.57;;;;;;;-143.21;75.88;73323.69;5033916;28;20190;-86
2023/12/10 09:33:46;;;;;;;34.33;19.67;;;;;;;-143.21;76.68;73317.75;5034016;28;20200;-86
2023/12/10 09:36:17;;;;;;;35.30;18.97;;;;;;;-143.21;76.04;73303.84;5032193;28;20195;-87
2023/12/10 09:38:44;;;;;;;36.90;19.97;;;;;;;-143.21;75.01;73284.00;5013924;28;20210;-87
2023/12/10 09:41:11;;;;;;;44.73;24.97;;;;;;;-143.21;75.75;73287.97;5026143;28;20223;-85
2023/12/10 09:43:38;;;;;;;64.57;31.40;;;;;;;-143.21;75.19;73280.03;5031242;28;20196;-86
2023/12/10 09:46:06;;;;;;;59.93;31.70;;;;;;;-143.21;75.49;73266.16;5032758;28;20279;-86
2023/12/10 09:48:33;;;;;;;52.17;27.47;;;;;;;-143.21;76.23;73244.34;5035431;28;20258;-86
2023/12/10 09:51:00;;;;;;;50.30;26.20;;;;;;;-143.21;75.80;73194.75;5032100;28;20607;-86
2023/12/10 09:53:29;;;;;;;44.77;21.97;;;;;;;-143.21;76.13;73085.66;5034675;28;20324;-86
2023/12/10 09:55:56;;;;;;;32.83;19.07;;;;;;;-143.21;72.07;72899.19;5039859;28;20201;-84
2023/12/10 09:58:23;;;;;;;27.13;16.30;;;;;;;-143.21;64.88;72744.50;5035074;28;20193;-84
2023/12/10 10:00:50;;;;;;;26.43;16.33;;;;;;;-143.21;60.91;72637.38;5034835;28;20214;-84
2023/12/10 10:03:18;;;;;;;31.97;17.30;;;;;;;-143.21;59.25;72546.16;5035107;28;20244;-84
2023/12/10 10:05:45;;;;;;;27.57;16.03;;;;;;;-143.21;56.64;72458.88;5035607;28;20195;-84
2023/12/10 10:08:11;;;;;;;26.73;16.57;;;;;;;-143.21;55.10;72450.97;5034848;28;20211;-84
2023/12/10 10:10:40;;;;;;;27.43;16.67;;;;;;;-143.21;55.65;72464.84;5034818;28;20198;-84
2023/12/10 10:13:07;;;;;;;37.50;16.70;;;;;;;-143.21;55.25;72494.59;5047029;28;20234;-82
2023/12/10 10:15:34;;;;;;;30.20;18.03;;;;;;;-143.21;56.22;72522.34;5045142;28;20207;-84
2023/12/10 10:18:01;;;;;;;27.03;16.93;;;;;;;-143.21;55.90;72464.84;5034567;28;20654;-84
2023/12/10 10:20:28;;;;;;;30.47;17.93;;;;;;;-143.21;53.52;72355.75;5034405;28;20222;-83
2023/12/10 10:22:55;;;;;;;30.73;18.30;;;;;;;-143.21;51.82;72230.81;5034730;28;20195;-84
2023/12/10 10:25:22;;;;;;;32.10;17.70;;;;;;;-143.21;50.11;72127.72;5034159;28;20670;-84
2023/12/10 10:27:51;;;;;;;30.07;18.33;;;;;;;-143.21;47.48;71998.81;5034230;28;20198;-83
2023/12/10 10:30:18;;;;;;;27.27;17.53;;;;;;;-143.21;44.05;71887.78;5033867;28;20195;-84
2023/12/10 10:32:45;;;;;;;27.17;18.30;;;;;;;-143.21;43.35;71925.44;5033891;28;20688;-83
2023/12/10 10:35:12;;;;;;;29.40;18.97;;;;;;;-143.21;44.49;71992.88;5034173;28;20198;-84
2023/12/10 10:37:39;;;;;;;29.20;19.87;;;;;;;-143.21;43.74;71897.69;5034218;28;20198;-83
2023/12/10 10:40:07;;;;;;;37.17;19.87;;;;;;;-143.21;41.63;71810.44;5034275;28;20218;-84
2023/12/10 10:42:34;;;;;;;30.33;19.60;;;;;;;-143.21;40.44;71725.16;5034085;28;20668;-83
2023/12/10 10:45:03;;;;;;;33.70;19.60;;;;;;;-143.21;39.92;71788.63;5034069;28;20629;-83
2023/12/10 10:47:32;;;;;;;30.87;19.70;;;;;;;-143.21;40.08;71760.88;5034036;28;20206;-84
2023/12/10 10:50:01;;;;;;;32.10;20.33;;;;;;;-143.21;40.07;71713.28;5033744;28;20535;-84
2023/12/10 10:52:32;;;;;;;29.60;20.30;;;;;;;-143.21;38.47;71641.91;5033832;28;20195;-84
2023/12/10 10:55:01;;;;;;;31.50;19.03;;;;;;;-143.21;37.24;71566.56;5033989;28;20240;-84
2023/12/10 10:57:29;;;;;;;31.43;19.57;;;;;;;-143.21;35.85;71554.66;5033798;28;20710;-84
2023/12/10 10:59:59;;;;;;;33.13;20.30;;;;;;;-143.21;35.59;71526.91;5033738;28;20225;-84
2023/12/10 11:02:27;;;;;;;29.40;20.37;;;;;;;-143.21;34.88;71481.28;5033843;28;20544;-84